createdAt,value
2022-12-12T00:01:37.471Z,13.73
2022-12-12T00:04:06.036Z,12.00
2022-12-12T00:06:33.975Z,13.95
2022-12-12T00:09:01.909Z,12.93
2022-12-12T00:11:30.282Z,13.82
2022-12-12T00:13:58.450Z,16.48
2022-12-12T00:16:29.268Z,15.23
2022-12-12T00:19:00.391Z,13.48
2022-12-12T00:21:30.544Z,13.40
2022-12-12T00:23:59.329Z,11.63
2022-12-12T00:26:31.419Z,11.45
2022-12-12T00:29:01.264Z,10.70
2022-12-12T00:31:29.535Z,13.23
2022-12-12T00:33:58.327Z,13.75
2022-12-12T00:36:29.879Z,12.63
2022-12-12T00:38:59.300Z,11.70
2022-12-12T00:41:28.334Z,11.32
2022-12-12T00:43:56.710Z,11.15
2022-12-12T00:46:26.266Z,10.07
2022-12-12T00:48:57.312Z,10.10
2022-12-12T00:51:27.948Z,10.45
2022-12-12T00:53:59.425Z,12.63
2022-12-12T00:56:29.199Z,9.68
2022-12-12T00:58:57.383Z,12.57
2022-12-12T01:01:29.516Z,10.50
2022-12-12T01:03:59.475Z,11.95
2022-12-12T01:06:28.309Z,11.15
2022-12-12T01:08:56.760Z,11.93
2022-12-12T01:11:25.661Z,11.40
2022-12-12T01:13:57.589Z,12.40
2022-12-12T01:16:26.590Z,11.35
2022-12-12T01:18:54.422Z,11.52
2022-12-12T01:21:22.434Z,11.20
2022-12-12T01:23:50.776Z,10.57
2022-12-12T01:26:22.383Z,12.80
2022-12-12T01:28:51.622Z,12.32
2022-12-12T01:31:20.235Z,11.88
2022-12-12T01:33:48.512Z,11.57
2022-12-12T01:36:19.359Z,11.85
2022-12-12T01:38:50.231Z,13.05
2022-12-12T01:41:19.501Z,11.75
2022-12-12T01:43:47.899Z,10.40
2022-12-12T01:46:43.579Z,11.50
2022-12-12T01:49:26.295Z,12.07
2022-12-12T01:52:00.853Z,12.80
2022-12-12T01:54:36.599Z,13.68
2022-12-12T01:57:13.773Z,13.88
2022-12-12T01:59:42.507Z,12.98
2022-12-12T02:02:10.620Z,12.45
2022-12-12T02:04:38.925Z,11.75
2022-12-12T02:07:08.250Z,15.65
2022-12-12T02:09:38.246Z,14.15
2022-12-12T02:12:06.746Z,12.88
2022-12-12T02:14:40.696Z,10.48
2022-12-12T02:17:29.922Z,13.60
2022-12-12T02:20:40.764Z,13.45
2022-12-12T02:23:19.333Z,11.40
2022-12-12T02:25:52.935Z,15.95
2022-12-12T02:28:49.781Z,12.80
2022-12-12T02:31:56.109Z,13.05
2022-12-12T02:34:47.331Z,15.32
2022-12-12T02:37:50.212Z,15.88
2022-12-12T02:40:46.437Z,16.48
2022-12-12T02:43:40.071Z,15.95
2022-12-12T02:46:32.349Z,13.88
2022-12-12T02:49:08.771Z,14.95
2022-12-12T02:51:38.726Z,11.85
2022-12-12T02:57:00.687Z,13.18
2022-12-12T02:59:37.013Z,12.50
2022-12-12T03:02:43.015Z,16.65
2022-12-12T03:05:47.793Z,12.48
2022-12-12T03:08:49.182Z,13.50
2022-12-12T03:11:52.808Z,10.90
2022-12-12T03:14:57.219Z,14.55
2022-12-12T03:17:50.085Z,10.88
2022-12-12T03:20:40.484Z,13.23
2022-12-12T03:23:18.470Z,12.20
2022-12-12T03:26:06.093Z,14.70
2022-12-12T03:29:20.092Z,15.40
2022-12-12T03:31:56.520Z,11.75
2022-12-12T03:34:58.947Z,14.25
2022-12-12T03:37:35.940Z,11.10
2022-12-12T03:40:15.598Z,16.85
2022-12-12T03:43:10.997Z,14.80
2022-12-12T03:46:14.106Z,13.60
2022-12-12T03:48:57.176Z,12.18
2022-12-12T03:51:31.718Z,15.13
2022-12-12T03:54:07.319Z,12.77
2022-12-12T03:57:18.018Z,12.35
2022-12-12T04:00:02.235Z,12.88
2022-12-12T04:02:52.201Z,13.27
2022-12-12T04:06:10.676Z,13.25
2022-12-12T04:08:39.468Z,12.98
2022-12-12T04:11:39.213Z,14.82
2022-12-12T04:15:03.613Z,13.50
2022-12-12T04:18:18.193Z,13.63
2022-12-12T04:21:44.017Z,14.43
2022-12-12T04:24:37.902Z,11.98
2022-12-12T04:27:22.695Z,12.32
2022-12-12T04:30:08.873Z,11.95
2022-12-12T04:32:50.368Z,12.02
2022-12-12T04:35:46.335Z,13.98
2022-12-12T04:38:21.976Z,10.65
2022-12-12T04:40:58.282Z,13.20
2022-12-12T04:43:34.715Z,13.63
2022-12-12T04:46:18.954Z,12.57
2022-12-12T04:48:56.661Z,11.25
2022-12-12T04:51:31.998Z,12.05
2022-12-12T04:54:30.961Z,14.15
2022-12-12T04:57:05.252Z,13.02
2022-12-12T04:59:33.525Z,13.10
2022-12-12T05:02:26.636Z,13.07
2022-12-12T05:04:59.147Z,13.27
2022-12-12T05:07:44.203Z,11.98
2022-12-12T05:10:16.641Z,14.15
2022-12-12T05:12:51.154Z,13.70
2022-12-12T05:15:20.767Z,12.77
2022-12-12T05:18:01.536Z,12.70
2022-12-12T05:20:29.870Z,13.07
2022-12-12T05:22:57.910Z,13.20
2022-12-12T05:25:26.041Z,14.20
2022-12-12T05:27:53.985Z,14.30
2022-12-12T05:30:22.475Z,10.45
2022-12-12T05:32:51.449Z,11.70
2022-12-12T05:35:19.434Z,14.07
2022-12-12T05:37:51.725Z,14.27
2022-12-12T05:40:21.719Z,14.10
2022-12-12T05:42:49.700Z,15.25
2022-12-12T05:45:17.603Z,14.98
2022-12-12T05:47:45.532Z,14.35
2022-12-12T05:50:14.222Z,12.35
2022-12-12T05:52:42.043Z,14.45
2022-12-12T05:55:10.327Z,12.48
2022-12-12T05:57:38.682Z,12.95
2022-12-12T06:00:09.012Z,12.43
2022-12-12T06:02:37.162Z,12.07
2022-12-12T06:05:05.780Z,11.68
2022-12-12T06:07:33.636Z,12.25
2022-12-12T06:10:01.627Z,12.23
2022-12-12T06:12:29.684Z,12.02
2022-12-12T06:14:57.826Z,12.98
2022-12-12T06:17:29.716Z,9.27
2022-12-12T06:20:01.783Z,14.30
2022-12-12T06:22:29.871Z,14.10
2022-12-12T06:24:58.128Z,11.70
2022-12-12T06:27:26.304Z,13.02
2022-12-12T06:29:54.260Z,12.23
2022-12-12T06:32:22.165Z,11.45
2022-12-12T06:34:50.633Z,13.25
2022-12-12T06:37:18.814Z,13.07
2022-12-12T06:39:47.171Z,13.02
2022-12-12T06:42:15.536Z,12.52
2022-12-12T06:44:43.655Z,15.15
2022-12-12T06:47:11.639Z,13.20
2022-12-12T06:49:39.600Z,11.27
2022-12-12T06:52:07.883Z,12.25
2022-12-12T06:54:36.694Z,14.23
2022-12-12T06:57:04.805Z,13.23
2022-12-12T06:59:34.581Z,13.50
2022-12-12T07:02:02.827Z,13.77
2022-12-12T07:04:30.915Z,13.65
2022-12-12T07:06:59.136Z,13.35
2022-12-12T07:09:28.434Z,13.10
2022-12-12T07:11:56.922Z,11.02
2022-12-12T07:14:25.095Z,15.23
2022-12-12T07:16:53.029Z,13.18
2022-12-12T07:19:22.753Z,13.93
2022-12-12T07:21:51.077Z,12.15
2022-12-12T07:24:19.150Z,12.70
2022-12-12T07:26:47.508Z,12.57
2022-12-12T07:29:16.106Z,11.15
2022-12-12T07:31:43.992Z,11.48
2022-12-12T07:34:11.983Z,11.10
2022-12-12T07:36:40.011Z,12.07
2022-12-12T07:39:08.097Z,12.77
2022-12-12T07:41:36.104Z,12.50
2022-12-12T07:44:05.985Z,11.80
2022-12-12T07:46:33.876Z,11.82
2022-12-12T07:49:01.958Z,15.02
2022-12-12T07:51:31.606Z,12.43
2022-12-12T07:53:59.445Z,13.98
2022-12-12T07:56:27.347Z,12.52
2022-12-12T07:58:57.506Z,12.00
2022-12-12T08:01:28.072Z,10.88
2022-12-12T08:03:57.268Z,11.65
2022-12-12T08:06:25.568Z,12.88
2022-12-12T08:08:54.269Z,13.27
2022-12-12T08:11:25.794Z,12.45
2022-12-12T08:13:54.150Z,11.68
2022-12-12T08:16:28.231Z,11.63
2022-12-12T08:18:59.313Z,11.52
2022-12-12T08:21:28.703Z,8.82
2022-12-12T08:24:02.374Z,12.35
2022-12-12T08:26:31.341Z,11.15
2022-12-12T08:28:59.252Z,11.57
2022-12-12T08:31:28.043Z,11.57
2022-12-12T08:33:57.246Z,11.02
2022-12-12T08:36:31.706Z,11.20
2022-12-12T08:39:05.066Z,10.85
2022-12-12T08:41:38.231Z,11.50
2022-12-12T08:44:08.008Z,11.75
2022-12-12T08:46:35.952Z,8.13
2022-12-12T08:49:04.231Z,9.98
2022-12-12T08:51:33.168Z,10.75
2022-12-12T08:54:01.092Z,10.25
2022-12-12T08:56:29.185Z,10.23
2022-12-12T08:58:58.518Z,10.75
2022-12-12T09:01:28.083Z,10.60
2022-12-12T09:03:57.652Z,9.90
2022-12-12T09:06:27.385Z,9.13
2022-12-12T09:08:59.708Z,9.98
2022-12-12T09:11:27.836Z,10.90
2022-12-12T09:13:55.874Z,9.23
2022-12-12T09:16:26.481Z,11.02
2022-12-12T09:18:54.674Z,8.70
2022-12-12T09:21:22.987Z,10.23
2022-12-12T09:23:51.093Z,9.77
2022-12-12T09:26:19.849Z,10.23
2022-12-12T09:28:48.950Z,9.93
2022-12-12T09:31:16.873Z,10.32
2022-12-12T09:33:45.706Z,7.97
2022-12-12T09:36:14.070Z,10.60
2022-12-12T09:38:42.903Z,9.90
2022-12-12T09:41:19.611Z,10.40
2022-12-12T09:44:12.827Z,10.38
2022-12-12T09:46:55.859Z,8.68
2022-12-12T09:49:54.271Z,10.02
2022-12-12T09:52:37.880Z,10.15
2022-12-12T09:55:36.174Z,9.13
2022-12-12T09:58:49.207Z,10.77
2022-12-12T10:01:53.473Z,11.15
2022-12-12T10:04:52.014Z,9.13
2022-12-12T10:07:36.725Z,9.55
2022-12-12T10:10:33.856Z,9.35
2022-12-12T10:13:05.039Z,11.00
2022-12-12T10:15:45.926Z,11.90
2022-12-12T10:18:26.214Z,10.00
2022-12-12T10:20:59.973Z,12.38
2022-12-12T10:23:53.772Z,11.70
2022-12-12T10:26:31.675Z,9.90
2022-12-12T10:29:21.084Z,11.13
2022-12-12T10:32:16.971Z,10.60
2022-12-12T10:34:50.841Z,10.93
2022-12-12T10:37:41.897Z,9.88
2022-12-12T10:40:29.847Z,10.90
2022-12-12T10:43:09.468Z,11.10
2022-12-12T10:46:13.302Z,10.30
2022-12-12T10:48:41.923Z,12.20
2022-12-12T10:51:15.786Z,10.57
2022-12-12T10:53:45.160Z,11.57
2022-12-12T10:56:25.111Z,11.70
2022-12-12T10:58:59.707Z,10.95
2022-12-12T11:02:07.839Z,11.85
2022-12-12T11:04:22.228Z,11.80
2022-12-12T11:06:55.076Z,10.57
2022-12-12T11:09:27.699Z,12.48
2022-12-12T11:12:01.579Z,12.05
2022-12-12T11:14:40.032Z,10.13
2022-12-12T11:17:31.015Z,9.93
2022-12-12T11:20:03.839Z,11.98
2022-12-12T11:22:34.375Z,10.43
2022-12-12T11:25:02.419Z,11.77
2022-12-12T11:27:39.768Z,10.27
2022-12-12T11:30:32.441Z,11.85
2022-12-12T11:33:01.978Z,12.02
2022-12-12T11:35:35.278Z,11.98
2022-12-12T11:38:50.861Z,10.50
2022-12-12T11:41:19.232Z,10.18
2022-12-12T11:43:50.614Z,10.55
2022-12-12T11:46:24.749Z,8.45
2022-12-12T11:48:52.589Z,11.90
2022-12-12T11:51:50.051Z,11.77
2022-12-12T11:54:34.878Z,12.15
2022-12-12T11:57:39.459Z,11.15
2022-12-12T12:00:22.431Z,10.40
2022-12-12T12:03:10.094Z,12.23
2022-12-12T12:06:08.965Z,12.38
2022-12-12T12:09:14.559Z,11.63
2022-12-12T12:12:02.857Z,11.88
2022-12-12T12:15:28.231Z,13.02
2022-12-12T12:18:34.604Z,11.43
2022-12-12T12:21:39.662Z,12.70
2022-12-12T12:24:14.046Z,11.88
2022-12-12T12:27:26.155Z,10.23
2022-12-12T12:30:11.889Z,8.63
2022-12-12T12:33:13.969Z,11.57
2022-12-12T12:36:27.713Z,10.52
2022-12-12T12:42:29.653Z,11.40
2022-12-12T12:45:17.629Z,10.52
2022-12-12T12:48:25.007Z,11.30
2022-12-12T12:51:23.620Z,11.60
2022-12-12T12:54:30.508Z,10.57
2022-12-12T12:57:12.874Z,11.20
2022-12-12T12:59:55.667Z,13.07
2022-12-12T13:02:36.197Z,11.82
2022-12-12T13:05:39.698Z,12.63
2022-12-12T13:08:24.727Z,11.32
2022-12-12T13:11:02.912Z,11.27
2022-12-12T13:13:35.705Z,11.50
2022-12-12T13:16:18.091Z,11.45
2022-12-12T13:19:09.186Z,13.52
2022-12-12T13:22:04.991Z,13.63
2022-12-12T13:24:59.396Z,11.35
2022-12-12T13:27:45.820Z,12.50
2022-12-12T13:30:42.698Z,13.52
2022-12-12T13:33:41.472Z,11.48
2022-12-12T13:36:32.506Z,13.15
2022-12-12T13:39:05.068Z,13.27
2022-12-12T13:42:02.217Z,13.43
2022-12-12T13:44:36.009Z,13.50
2022-12-12T13:47:24.638Z,13.45
2022-12-12T13:50:11.030Z,13.68
2022-12-12T13:52:43.714Z,14.65
2022-12-12T13:55:11.580Z,12.77
2022-12-12T13:58:19.281Z,15.48
2022-12-12T14:00:47.702Z,14.75
2022-12-12T14:03:30.043Z,15.20
2022-12-12T14:06:12.017Z,15.23
2022-12-12T14:08:51.817Z,14.85
2022-12-12T14:11:36.612Z,13.85
2022-12-12T14:14:18.331Z,13.60
2022-12-12T14:16:54.735Z,15.35
2022-12-12T14:19:35.136Z,14.90
2022-12-12T14:22:04.638Z,14.55
2022-12-12T14:24:35.439Z,15.88
2022-12-12T14:27:06.727Z,17.35
2022-12-12T14:29:45.684Z,15.00
2022-12-12T14:32:13.874Z,15.45
2022-12-12T14:34:57.049Z,15.95
2022-12-12T14:38:10.452Z,15.57
2022-12-12T14:40:45.654Z,15.70
2022-12-12T14:43:23.486Z,13.88
2022-12-12T14:45:51.492Z,15.68
2022-12-12T14:48:25.233Z,16.63
2022-12-12T14:51:13.468Z,14.23
2022-12-12T14:53:54.365Z,15.40
2022-12-12T14:56:39.159Z,13.03
2022-12-12T14:59:20.688Z,14.93
2022-12-12T15:01:53.980Z,14.85
2022-12-12T15:04:26.568Z,13.32
2022-12-12T15:06:58.235Z,15.85
2022-12-12T15:09:31.825Z,16.70
2022-12-12T15:12:20.143Z,17.52
2022-12-12T15:14:49.350Z,18.13
2022-12-12T15:17:37.909Z,15.95
2022-12-12T15:20:15.869Z,13.05
2022-12-12T15:22:58.137Z,16.35
2022-12-12T15:25:43.399Z,17.58
2022-12-12T15:28:20.342Z,16.10
2022-12-12T15:30:52.763Z,17.83
2022-12-12T15:33:24.548Z,17.80
2022-12-12T15:38:31.849Z,14.38
2022-12-12T15:41:05.416Z,15.60
2022-12-12T15:43:37.466Z,14.18
2022-12-12T15:46:16.075Z,17.08
2022-12-12T15:48:45.972Z,16.90
2022-12-12T15:51:21.101Z,14.85
2022-12-12T15:53:58.485Z,15.57
2022-12-12T15:56:29.497Z,17.25
2022-12-12T15:59:09.258Z,17.67
2022-12-12T16:01:38.409Z,16.20
2022-12-12T16:04:09.873Z,16.95
2022-12-12T16:06:42.186Z,17.75
2022-12-12T16:09:18.942Z,15.32
2022-12-12T16:11:51.879Z,16.23
2022-12-12T16:14:26.155Z,16.77
2022-12-12T16:17:24.379Z,17.27
2022-12-12T16:20:13.861Z,17.05
2022-12-12T16:22:44.883Z,17.65
2022-12-12T16:25:19.374Z,18.50
2022-12-12T16:28:08.831Z,18.38
2022-12-12T16:30:39.604Z,17.77
2022-12-12T16:33:30.072Z,16.07
2022-12-12T16:36:01.638Z,16.45
2022-12-12T16:38:31.221Z,14.90
2022-12-12T16:41:04.054Z,17.52
2022-12-12T16:43:32.863Z,13.70
2022-12-12T16:46:01.298Z,13.63
2022-12-12T16:48:40.534Z,11.07
2022-12-12T16:51:15.555Z,13.73
2022-12-12T16:53:43.785Z,14.35
2022-12-12T16:56:12.796Z,16.23
2022-12-12T16:58:40.873Z,13.43
2022-12-12T17:01:09.038Z,15.05
2022-12-12T17:03:37.742Z,13.63
2022-12-12T17:06:06.223Z,13.70
2022-12-12T17:08:35.203Z,14.93
2022-12-12T17:11:09.595Z,14.50
2022-12-12T17:13:51.344Z,14.65
2022-12-12T17:16:25.857Z,15.65
2022-12-12T17:18:56.168Z,14.13
2022-12-12T17:21:26.443Z,12.73
2022-12-12T17:23:55.869Z,14.38
2022-12-12T17:26:25.124Z,14.40
2022-12-12T17:28:54.737Z,16.58
2022-12-12T17:31:23.671Z,16.80
2022-12-12T17:33:52.070Z,18.45
2022-12-12T17:36:21.989Z,17.85
2022-12-12T17:38:50.874Z,16.73
2022-12-12T17:41:23.903Z,15.25
2022-12-12T17:43:56.929Z,15.18
2022-12-12T17:46:28.865Z,16.90
2022-12-12T17:48:59.079Z,15.50
2022-12-12T17:51:27.536Z,17.13
2022-12-12T17:53:56.123Z,16.05
2022-12-12T17:56:25.877Z,15.23
2022-12-12T17:58:57.296Z,15.70
2022-12-12T18:01:31.831Z,15.07
2022-12-12T18:04:01.564Z,15.50
2022-12-12T18:06:35.104Z,15.20
2022-12-12T18:09:04.731Z,15.48
2022-12-12T18:11:35.855Z,15.60
2022-12-12T18:14:07.533Z,15.35
2022-12-12T18:16:37.155Z,14.32
2022-12-12T18:19:05.366Z,13.85
2022-12-12T18:24:25.863Z,14.35
2022-12-12T18:26:57.100Z,14.75
2022-12-12T18:29:27.103Z,13.82
2022-12-12T18:31:59.017Z,12.85
2022-12-12T18:34:27.253Z,13.30
2022-12-12T18:36:55.775Z,12.20
2022-12-12T18:39:26.645Z,14.00
2022-12-12T18:41:54.994Z,12.65
2022-12-12T18:44:24.217Z,12.48
2022-12-12T18:46:52.328Z,12.55
2022-12-12T18:49:20.618Z,12.23
2022-12-12T18:51:49.356Z,10.73
2022-12-12T18:54:17.616Z,10.30
2022-12-12T18:56:47.375Z,11.73
2022-12-12T18:59:16.776Z,11.85
2022-12-12T19:01:45.404Z,11.75
2022-12-12T19:04:20.926Z,11.73
2022-12-12T19:06:53.128Z,12.80
2022-12-12T19:09:22.339Z,11.45
2022-12-12T19:11:54.298Z,10.48
2022-12-12T19:14:35.670Z,10.10
2022-12-12T19:17:08.826Z,11.75
2022-12-12T19:19:37.161Z,11.77
2022-12-12T19:22:24.713Z,11.27
2022-12-12T19:24:53.572Z,11.57
2022-12-12T19:27:21.785Z,11.02
2022-12-12T19:29:49.777Z,11.73
2022-12-12T19:32:17.835Z,11.20
2022-12-12T19:34:45.835Z,11.27
2022-12-12T19:37:13.713Z,10.52
2022-12-12T19:39:43.309Z,10.70
2022-12-12T19:42:11.274Z,12.23
2022-12-12T19:44:43.551Z,11.18
2022-12-12T19:47:13.552Z,11.25
2022-12-12T19:49:41.470Z,12.10
2022-12-12T19:52:14.008Z,11.05
2022-12-12T19:54:43.231Z,10.38
2022-12-12T19:57:11.227Z,12.05
2022-12-12T19:59:39.281Z,13.15
2022-12-12T20:02:08.000Z,13.52
2022-12-12T20:04:36.058Z,12.20
2022-12-12T20:07:04.014Z,12.25
2022-12-12T20:09:35.651Z,11.88
2022-12-12T20:12:04.635Z,12.15
2022-12-12T20:14:34.997Z,12.05
2022-12-12T20:17:03.762Z,11.88
2022-12-12T20:19:32.252Z,14.15
2022-12-12T20:22:02.236Z,12.32
2022-12-12T20:24:33.567Z,11.60
2022-12-12T20:27:05.769Z,12.48
2022-12-12T20:29:33.972Z,11.88
2022-12-12T20:32:03.525Z,11.98
2022-12-12T20:34:31.448Z,12.57
2022-12-12T20:36:59.749Z,12.65
2022-12-12T20:39:27.871Z,12.70
2022-12-12T20:41:57.637Z,11.13
2022-12-12T20:44:26.266Z,11.75
2022-12-12T20:46:58.828Z,14.07
2022-12-12T20:49:29.041Z,12.05
2022-12-12T20:51:58.810Z,11.02
2022-12-12T20:54:29.725Z,13.48
2022-12-12T20:56:59.207Z,13.60
2022-12-12T20:59:28.020Z,12.57
2022-12-12T21:01:56.176Z,13.50
2022-12-12T21:04:24.490Z,12.57
2022-12-12T21:06:52.498Z,12.18
2022-12-12T21:09:25.469Z,12.57
2022-12-12T21:11:57.118Z,12.40
2022-12-12T21:14:28.281Z,11.85
2022-12-12T21:16:57.002Z,10.73
2022-12-12T21:19:25.017Z,12.00
2022-12-12T21:21:53.256Z,12.77
2022-12-12T21:24:21.948Z,11.85
2022-12-12T21:26:50.715Z,12.23
2022-12-12T21:29:18.727Z,15.02
2022-12-12T21:31:51.569Z,11.50
2022-12-12T21:34:22.380Z,9.95
2022-12-12T21:36:52.859Z,12.25
2022-12-12T21:39:23.407Z,13.20
2022-12-12T21:41:51.669Z,10.20
2022-12-12T21:44:21.227Z,11.25
2022-12-12T21:46:49.344Z,10.45
2022-12-12T21:49:20.385Z,10.68
2022-12-12T21:51:48.735Z,11.80
2022-12-12T21:54:17.031Z,11.80
2022-12-12T21:56:45.976Z,10.88
2022-12-12T21:59:15.385Z,10.85
2022-12-12T22:01:44.467Z,10.18
2022-12-12T22:04:13.722Z,12.00
2022-12-12T22:06:43.928Z,11.23
2022-12-12T22:09:13.017Z,11.30
2022-12-12T22:11:49.190Z,11.00
2022-12-12T22:14:21.967Z,11.35
2022-12-12T22:16:50.086Z,10.43
2022-12-12T22:19:18.677Z,11.50
2022-12-12T22:21:50.390Z,11.35
2022-12-12T22:26:49.798Z,11.48
2022-12-12T22:29:20.692Z,10.32
2022-12-12T22:31:50.358Z,9.93
2022-12-12T22:34:24.584Z,10.05
2022-12-12T22:36:55.599Z,8.60
2022-12-12T22:39:28.072Z,8.52
2022-12-12T22:41:57.003Z,8.63
2022-12-12T22:44:26.310Z,10.02
2022-12-12T22:46:55.841Z,8.98
2022-12-12T22:49:26.909Z,9.43
2022-12-12T22:51:57.897Z,9.40
2022-12-12T22:54:27.065Z,8.57
2022-12-12T22:56:56.904Z,9.75
2022-12-12T22:59:25.519Z,8.85
2022-12-12T23:01:53.662Z,7.30
2022-12-12T23:04:22.171Z,9.38
2022-12-12T23:06:50.458Z,9.45
2022-12-12T23:09:23.173Z,9.38
2022-12-12T23:11:53.470Z,7.65
2022-12-12T23:14:23.854Z,7.47
2022-12-12T23:16:52.676Z,9.35
2022-12-12T23:19:25.988Z,9.52
2022-12-12T23:21:54.976Z,9.55
2022-12-12T23:24:24.585Z,9.57
2022-12-12T23:26:52.499Z,9.40
2022-12-12T23:29:21.248Z,8.18
2022-12-12T23:31:49.759Z,8.73
2022-12-12T23:34:24.823Z,11.95
2022-12-12T23:36:54.765Z,8.15
2022-12-12T23:39:24.642Z,8.60
2022-12-12T23:41:53.543Z,8.65
2022-12-12T23:44:23.650Z,8.98
2022-12-12T23:46:52.022Z,8.30
2022-12-12T23:49:26.048Z,8.75
2022-12-12T23:51:59.401Z,7.85
2022-12-12T23:54:35.453Z,8.35
2022-12-12T23:57:03.885Z,8.18
2022-12-12T23:59:32.067Z,8.57
